aviador You're here:

LFRZ Decoded Metar

ST.-NAZAIRE in FRANCE
Report Time2017-12-18 08:30:00
UTC Time2017-12-18 09:04:04
Flight Rules ifr IFR
Wind300° at 06 kt
W.Decomp.*RWY 26: 4.5 kt HW 4.0 kt RCW
W.Rank300° ranks 1
Current wind is below 300° avg. (7.3)
Visibility4100 m
Phenomena:Mist
Clouds:Overcast 007 Hf
Expected CloudBase > 400 ft AGL from Temp-Dew spread
Ceiling700 ft
Temp12°C (ISA -3)
Dew Point11°C (94% RH)
AAT10.2°C
QNH1026 hPa
Density Alt-604 ft
Elevation13 ft
Report Wrong Elevation
Raw Report
LFRZ 180830Z AUTO 30006KT 270V330 4100 BR OVC007 12/11 Q1026 BECMG
9999 NSW BKN020=

Extra information for LFRZ:More info

Metar Taf Metar & Taf Last 4 Metars F.Rules Stats Wind Profile Meteogram Temp Stats Airport Information Weather charts Add Link Nearby VenuesMetar ALERT Operation Metar Decoded Social comments